Rosaria Lauro — IXXO — position and weather

sailwx.info

Track history (hours):
 
Tides and Currents Weather Stations Pressure Air Temp Water Temp Dewpoint Dewpoint Depression Visibility Wind Speed Wind Dir Waves Ship Positions

Rosaria Lauro

Last reported at 2015-Oct-18 10:33 UTC. Time now 2016-Feb-12 18:08 UTC.
Position N 40°48' E 014°14'.
Warning: this ship's position is months out of date.

Length 40 m; draft 1.1 m.

Type: Passenger vessel. MMSI: 247055900.

Date/timePositionNaut miles runAvg speedWind from/ knotsBaromVisibWave heightAir tempDewpointWater temp
2015-Oct-18 10:33N 40°48' E 014°14'1414.1
2015-Oct-18 09:33N 40°45' E 013°55'1 1.2
2015-Oct-18 08:34N 40°45' E 013°57'1515.3
2015-Oct-18 07:33N 40°50' E 014°16'1615.9
2015-Oct-18 06:33N 40°45' E 013°56'0 0.0
2015-Oct-17 11:13N 40°45' E 013°56'1116.1
2015-Oct-17 10:33N 40°47' E 014°10'6 2.9
2015-Oct-17 08:33N 40°50' E 014°17'1616.4
2015-Oct-17 07:34N 40°45' E 013°56'0 0.0
2015-Oct-17 06:33N 40°45' E 013°56'1612.2
2015-Oct-17 05:14N 40°50' E 014°17'1623.1
2015-Oct-17 04:33N 40°45' E 013°57'1 0.5
2015-Oct-17 03:33N 40°45' E 013°56'0 0.0
2015-Oct-16 19:14N 40°45' E 013°56'1520.9
2015-Oct-16 18:32N 40°48' E 014°15'6 6.4
2015-Oct-16 17:34N 40°46' E 014°07'4 4.1
2015-Oct-16 16:33N 40°45' E 014°03'10 9.8
2015-Oct-16 15:32N 40°48' E 014°15'1514.8
2015-Oct-16 14:34N 40°45' E 013°56'12 6.1
2015-Oct-16 12:34N 40°47' E 014°12'6 5.9
2015-Oct-16 11:34N 40°45' E 014°05'10 9.7
2015-Oct-16 10:34N 40°49' E 014°17'1817.7
2015-Oct-16 09:34N 40°46' E 013°54'5 5.2
2015-Oct-16 08:34N 40°44' E 014°00'1412.6
2015-Oct-16 07:29N 40°50' E 014°17'1617.4
2015-Oct-16 06:33N 40°45' E 013°56'0 0.1
2015-Oct-16 05:33N 40°45' E 013°56'  
2015-Oct-13 12:07N 40°45' E 013°56'712.0
2015-Oct-13 11:34N 40°46' E 014°05'8 8.3
2015-Oct-13 10:34N 40°48' E 014°16'1515.2
2015-Oct-13 09:34N 40°45' E 013°56'1 0.8
2015-Oct-13 08:34N 40°45' E 013°56'8 2.6
2015-Oct-13 05:34N 40°46' E 014°06'8 7.6
2015-Oct-13 04:33N 40°45' E 013°56'  
2015-Oct-08 14:20N 40°45' E 013°56'0 0.0
2015-Oct-08 13:33N 40°45' E 013°56'0 0.0
2015-Oct-08 12:33N 40°45' E 013°56'  
Track history (hours):
 
Tides and Currents Weather Stations Pressure Air Temp Water Temp Dewpoint Dewpoint Depression Visibility Wind Speed Wind Dir Waves Ship Positions

Rosaria Lauro

Last reported at 2015-Oct-18 10:33 UTC. Time now 2016-Feb-12 18:08 UTC.
Position N 40°48' E 014°14'.
Warning: this ship's position is months out of date.

Length 40 m; draft 1.1 m.

Type: Passenger vessel. MMSI: 247055900.

Date/timePositionNaut miles runAvg speedWind from/ knotsBaromVisibWave heightAir tempDewpointWater temp
2015-Oct-18 10:33N 40°48' E 014°14'1414.1
2015-Oct-18 09:33N 40°45' E 013°55'1 1.2
2015-Oct-18 08:34N 40°45' E 013°57'1515.3
2015-Oct-18 07:33N 40°50' E 014°16'1615.9
2015-Oct-18 06:33N 40°45' E 013°56'0 0.0
2015-Oct-17 11:13N 40°45' E 013°56'1116.1
2015-Oct-17 10:33N 40°47' E 014°10'6 2.9
2015-Oct-17 08:33N 40°50' E 014°17'1616.4
2015-Oct-17 07:34N 40°45' E 013°56'0 0.0
2015-Oct-17 06:33N 40°45' E 013°56'1612.2
2015-Oct-17 05:14N 40°50' E 014°17'1623.1
2015-Oct-17 04:33N 40°45' E 013°57'1 0.5
2015-Oct-17 03:33N 40°45' E 013°56'0 0.0
2015-Oct-16 19:14N 40°45' E 013°56'1520.9
2015-Oct-16 18:32N 40°48' E 014°15'6 6.4
2015-Oct-16 17:34N 40°46' E 014°07'4 4.1
2015-Oct-16 16:33N 40°45' E 014°03'10 9.8
2015-Oct-16 15:32N 40°48' E 014°15'1514.8
2015-Oct-16 14:34N 40°45' E 013°56'12 6.1
2015-Oct-16 12:34N 40°47' E 014°12'6 5.9
2015-Oct-16 11:34N 40°45' E 014°05'10 9.7
2015-Oct-16 10:34N 40°49' E 014°17'1817.7
2015-Oct-16 09:34N 40°46' E 013°54'5 5.2
2015-Oct-16 08:34N 40°44' E 014°00'1412.6
2015-Oct-16 07:29N 40°50' E 014°17'1617.4
2015-Oct-16 06:33N 40°45' E 013°56'0 0.1
2015-Oct-16 05:33N 40°45' E 013°56'  
2015-Oct-13 12:07N 40°45' E 013°56'712.0
2015-Oct-13 11:34N 40°46' E 014°05'8 8.3
2015-Oct-13 10:34N 40°48' E 014°16'1515.2
2015-Oct-13 09:34N 40°45' E 013°56'1 0.8
2015-Oct-13 08:34N 40°45' E 013°56'8 2.6
2015-Oct-13 05:34N 40°46' E 014°06'8 7.6
2015-Oct-13 04:33N 40°45' E 013°56'  
2015-Oct-08 14:20N 40°45' E 013°56'0 0.0
2015-Oct-08 13:33N 40°45' E 013°56'0 0.0
2015-Oct-08 12:33N 40°45' E 013°56'  

Dump ship's entire track history